createdAt,value
2018-11-13T00:00:37.079Z,24.40
2018-11-13T00:01:37.081Z,25.20
2018-11-13T00:02:37.182Z,24.60
2018-11-13T00:03:37.183Z,24.00
2018-11-13T00:04:37.242Z,23.30
2018-11-13T00:05:37.327Z,23.30
2018-11-13T00:06:37.335Z,23.70
2018-11-13T00:07:37.382Z,23.20
2018-11-13T00:08:37.442Z,22.60
2018-11-13T00:09:37.495Z,23.00
2018-11-13T00:10:37.508Z,23.00
2018-11-13T00:11:37.734Z,22.00
2018-11-13T00:12:37.608Z,23.20
2018-11-13T00:13:37.658Z,22.60
2018-11-13T00:14:37.719Z,22.80
2018-11-13T00:15:37.748Z,22.30
2018-11-13T00:16:37.813Z,21.20
2018-11-13T00:17:37.835Z,20.90
2018-11-13T00:18:37.881Z,21.10
2018-11-13T00:19:37.936Z,22.70
2018-11-13T00:20:38.018Z,22.10
2018-11-13T00:21:38.019Z,20.30
2018-11-13T00:22:38.074Z,21.60
2018-11-13T00:23:38.103Z,22.90
2018-11-13T00:24:38.155Z,22.00
2018-11-13T00:25:38.191Z,21.10
2018-11-13T00:26:38.228Z,20.30
2018-11-13T00:27:38.358Z,19.60
2018-11-13T00:28:38.320Z,19.50
2018-11-13T00:29:38.395Z,20.50
2018-11-13T00:30:38.461Z,20.00
2018-11-13T00:31:38.497Z,19.60
2018-11-13T00:32:38.529Z,19.90
2018-11-13T00:33:38.624Z,20.40
2018-11-13T00:34:38.607Z,19.70
2018-11-13T00:35:38.675Z,20.00
2018-11-13T00:36:38.710Z,19.80
2018-11-13T00:37:38.759Z,20.20
2018-11-13T00:38:38.786Z,19.20
2018-11-13T00:39:38.848Z,19.60
2018-11-13T00:40:38.909Z,18.80
2018-11-13T00:41:38.947Z,18.30
2018-11-13T00:42:38.978Z,19.20
2018-11-13T00:43:39.033Z,20.40
2018-11-13T00:44:39.099Z,19.50
2018-11-13T00:45:39.265Z,18.90
2018-11-13T00:46:39.224Z,19.30
2018-11-13T00:47:39.205Z,20.00
2018-11-13T00:48:39.281Z,20.50
2018-11-13T00:49:39.322Z,19.00
2018-11-13T00:50:39.382Z,18.60
2018-11-13T00:51:39.415Z,19.10
2018-11-13T00:52:39.430Z,20.10
2018-11-13T00:53:39.510Z,19.00
2018-11-13T00:54:39.538Z,18.70
2018-11-13T00:55:39.580Z,19.60
2018-11-13T00:56:39.652Z,19.00
2018-11-13T00:57:39.696Z,19.10
2018-11-13T00:58:39.741Z,19.00
2018-11-13T00:59:39.773Z,19.00
2018-11-13T01:00:39.862Z,17.90
2018-11-13T01:01:39.869Z,19.10
2018-11-13T01:02:39.904Z,19.10
2018-11-13T01:03:39.970Z,19.10
2018-11-13T01:04:40.011Z,18.40
2018-11-13T01:05:40.108Z,19.00
2018-11-13T01:06:40.110Z,17.60
2018-11-13T01:07:40.227Z,17.80
2018-11-13T01:08:40.188Z,17.70
2018-11-13T01:09:40.244Z,17.10
2018-11-13T01:10:40.296Z,15.60
2018-11-13T01:11:40.396Z,14.50
2018-11-13T01:12:40.392Z,15.00
2018-11-13T01:13:40.448Z,12.60
2018-11-13T01:14:40.483Z,13.00
2018-11-13T01:15:40.509Z,13.20
2018-11-13T01:16:40.573Z,12.70
2018-11-13T01:17:40.625Z,11.40
2018-11-13T01:18:40.658Z,11.40
2018-11-13T01:19:40.699Z,10.40
2018-11-13T01:20:40.741Z,11.00
2018-11-13T01:21:40.797Z,10.60
2018-11-13T01:22:40.829Z,10.50
2018-11-13T01:23:40.890Z,10.80
2018-11-13T01:24:40.918Z,10.60
2018-11-13T01:25:40.980Z,10.50
2018-11-13T01:26:41.042Z,10.30
2018-11-13T01:27:41.088Z,9.80
2018-11-13T01:28:41.137Z,9.80
2018-11-13T01:29:41.170Z,9.80
2018-11-13T01:30:41.211Z,9.80
2018-11-13T01:31:41.266Z,9.30
2018-11-13T01:32:41.311Z,9.60
2018-11-13T01:33:41.357Z,9.10
2018-11-13T01:34:41.646Z,9.30
2018-11-13T01:35:41.438Z,9.40
2018-11-13T01:36:41.484Z,9.20
2018-11-13T01:37:41.550Z,9.40
2018-11-13T01:38:41.592Z,9.30
2018-11-13T01:39:41.630Z,9.20
2018-11-13T01:40:41.662Z,9.00
2018-11-13T01:41:41.791Z,9.10
2018-11-13T01:42:41.817Z,9.20
2018-11-13T01:43:41.788Z,8.90
2018-11-13T01:44:41.851Z,8.90
2018-11-13T01:45:41.891Z,9.50
2018-11-13T01:46:41.930Z,9.70
2018-11-13T01:47:42.005Z,9.50
2018-11-13T01:48:42.048Z,9.50
2018-11-13T01:49:42.528Z,10.40
2018-11-13T01:50:42.120Z,9.80
2018-11-13T01:51:42.165Z,9.80
2018-11-13T01:52:42.208Z,9.50
2018-11-13T01:53:42.274Z,9.90
2018-11-13T01:54:42.327Z,9.70
2018-11-13T01:55:42.353Z,9.80
2018-11-13T01:56:42.404Z,9.90
2018-11-13T01:57:42.506Z,9.90
2018-11-13T01:58:42.505Z,10.90
2018-11-13T01:59:42.534Z,9.90
2018-11-13T02:00:42.600Z,10.10
2018-11-13T02:01:42.913Z,10.10
2018-11-13T02:02:42.729Z,11.20
2018-11-13T02:03:42.778Z,11.30
2018-11-13T02:04:42.783Z,12.10
2018-11-13T02:05:42.870Z,11.30
2018-11-13T02:06:42.951Z,11.40
2018-11-13T02:07:43.005Z,10.90
2018-11-13T02:08:43.013Z,11.70
2018-11-13T02:09:43.057Z,11.40
2018-11-13T02:10:43.099Z,12.50
2018-11-13T02:11:43.143Z,12.50
2018-11-13T02:12:43.204Z,13.70
2018-11-13T02:13:43.232Z,13.70
2018-11-13T02:14:43.267Z,13.80
2018-11-13T02:15:43.270Z,13.70
2018-11-13T02:16:43.389Z,13.40
2018-11-13T02:17:43.443Z,15.80
2018-11-13T02:18:43.521Z,15.10
2018-11-13T02:19:43.528Z,15.30
2018-11-13T02:20:43.549Z,15.10
2018-11-13T02:21:43.557Z,15.80
2018-11-13T02:22:43.708Z,17.90
2018-11-13T02:23:43.792Z,17.30
2018-11-13T02:24:43.755Z,16.40
2018-11-13T02:25:43.734Z,18.10
2018-11-13T02:26:43.835Z,28.80
2018-11-13T02:27:43.838Z,17.40
2018-11-13T02:28:43.914Z,17.80
2018-11-13T02:29:44.030Z,17.00
2018-11-13T02:30:44.042Z,17.20
2018-11-13T02:31:44.055Z,18.40
2018-11-13T02:32:44.066Z,17.80
2018-11-13T02:33:44.102Z,17.50
2018-11-13T02:34:44.183Z,18.10
2018-11-13T02:35:44.306Z,16.90
2018-11-13T02:36:44.287Z,17.20
2018-11-13T02:37:44.358Z,17.20
2018-11-13T02:38:44.395Z,17.50
2018-11-13T02:39:44.439Z,17.50
2018-11-13T02:40:44.398Z,17.90
2018-11-13T02:41:44.731Z,18.20
2018-11-13T02:42:44.514Z,18.20
2018-11-13T02:43:44.557Z,16.80
2018-11-13T02:44:44.610Z,17.80
2018-11-13T02:45:44.631Z,17.60
2018-11-13T02:46:44.952Z,17.20
2018-11-13T02:47:44.748Z,17.90
2018-11-13T02:48:44.806Z,17.70
2018-11-13T02:49:44.829Z,17.80
2018-11-13T02:50:44.876Z,17.60
2018-11-13T02:51:44.927Z,17.50
2018-11-13T02:52:44.977Z,17.70
2018-11-13T02:53:45.059Z,18.10
2018-11-13T02:54:45.110Z,18.20
2018-11-13T02:55:45.113Z,17.20
2018-11-13T02:56:45.164Z,16.00
2018-11-13T02:57:45.201Z,16.60
2018-11-13T02:58:45.265Z,17.50
2018-11-13T02:59:45.309Z,17.30
2018-11-13T03:00:45.318Z,17.80
2018-11-13T03:01:45.383Z,17.70
2018-11-13T03:02:45.426Z,17.00
2018-11-13T03:03:45.484Z,15.80
2018-11-13T03:04:45.515Z,15.90
2018-11-13T03:05:45.576Z,16.40
2018-11-13T03:06:45.621Z,16.10
2018-11-13T03:07:45.649Z,15.80
2018-11-13T03:08:45.698Z,15.50
2018-11-13T03:09:45.785Z,15.70
2018-11-13T03:10:45.777Z,15.70
2018-11-13T03:11:45.844Z,14.90
2018-11-13T03:12:45.891Z,15.30
2018-11-13T03:13:46.012Z,15.20
2018-11-13T03:14:45.962Z,15.50
2018-11-13T03:15:46.026Z,14.50
2018-11-13T03:16:46.089Z,14.30
2018-11-13T03:17:46.199Z,12.70
2018-11-13T03:18:46.170Z,12.80
2018-11-13T03:19:46.217Z,12.60
2018-11-13T03:20:46.245Z,12.30
2018-11-13T03:21:46.300Z,12.00
2018-11-13T03:22:46.351Z,12.20
2018-11-13T03:23:46.382Z,11.60
2018-11-13T03:24:46.465Z,12.30
2018-11-13T03:25:46.520Z,14.40
2018-11-13T03:26:46.560Z,11.70
2018-11-13T03:27:46.568Z,12.20
2018-11-13T03:28:46.618Z,11.70
2018-11-13T03:29:46.641Z,11.90
2018-11-13T03:30:46.721Z,12.20
2018-11-13T03:31:46.753Z,11.90
2018-11-13T03:32:46.800Z,13.00
2018-11-13T03:33:46.826Z,12.90
2018-11-13T03:34:46.867Z,13.60
2018-11-13T03:35:46.946Z,18.90
2018-11-13T03:36:46.969Z,13.70
2018-11-13T03:37:47.010Z,13.40
2018-11-13T03:38:47.062Z,14.40
2018-11-13T03:39:47.125Z,14.00
2018-11-13T03:40:47.200Z,13.80
2018-11-13T03:41:47.214Z,15.20
2018-11-13T03:42:47.263Z,16.00
2018-11-13T03:43:47.268Z,15.20
2018-11-13T03:44:47.338Z,15.50
2018-11-13T03:45:47.392Z,14.60
2018-11-13T03:46:47.433Z,16.10
2018-11-13T03:47:47.480Z,16.10
2018-11-13T03:48:47.529Z,17.40
2018-11-13T03:49:47.583Z,17.60
2018-11-13T03:50:47.615Z,16.10
2018-11-13T03:51:47.644Z,16.50
2018-11-13T03:52:47.692Z,16.90
2018-11-13T03:53:47.744Z,16.70
2018-11-13T03:54:47.809Z,17.40
2018-11-13T03:55:47.831Z,17.20
2018-11-13T03:56:47.900Z,17.70
2018-11-13T03:57:47.925Z,17.30
2018-11-13T03:58:47.964Z,17.50
2018-11-13T03:59:48.017Z,18.00
2018-11-13T04:00:48.065Z,18.10
2018-11-13T04:01:48.103Z,19.20
2018-11-13T04:02:48.161Z,18.10
2018-11-13T04:03:48.190Z,19.00
2018-11-13T04:04:48.241Z,18.70
2018-11-13T04:05:48.298Z,18.30
2018-11-13T04:06:48.323Z,21.40
2018-11-13T04:07:48.375Z,20.20
2018-11-13T04:08:48.424Z,20.60
2018-11-13T04:09:48.483Z,20.90
2018-11-13T04:10:48.513Z,20.70
2018-11-13T04:11:48.560Z,22.30
2018-11-13T04:12:48.610Z,24.90
2018-11-13T04:13:48.650Z,22.30
2018-11-13T04:14:48.705Z,22.50
2018-11-13T04:15:48.734Z,38.90
2018-11-13T04:16:48.791Z,22.10
2018-11-13T04:17:48.841Z,21.80
2018-11-13T04:18:48.913Z,21.90
2018-11-13T04:19:48.917Z,24.20
2018-11-13T04:20:48.972Z,24.00
2018-11-13T04:21:49.043Z,42.10
2018-11-13T04:22:49.061Z,23.30
2018-11-13T04:23:49.108Z,23.70
2018-11-13T04:24:49.188Z,24.50
2018-11-13T04:25:49.191Z,23.90
2018-11-13T04:26:49.220Z,24.30
2018-11-13T04:27:49.275Z,24.70
2018-11-13T04:28:49.361Z,25.20
2018-11-13T04:29:49.382Z,26.30
2018-11-13T04:30:49.480Z,24.40
2018-11-13T04:31:49.466Z,25.70
2018-11-13T04:32:49.513Z,25.20
2018-11-13T04:33:49.554Z,25.40
2018-11-13T04:34:49.604Z,24.70
2018-11-13T04:35:49.629Z,25.10
2018-11-13T04:36:49.700Z,25.50
2018-11-13T04:37:49.740Z,25.00
2018-11-13T04:38:49.760Z,25.60
2018-11-13T04:39:49.831Z,24.50
2018-11-13T04:40:49.863Z,25.80
2018-11-13T04:41:49.910Z,25.80
2018-11-13T04:42:49.967Z,25.90
2018-11-13T04:43:50.007Z,26.30
2018-11-13T04:44:50.081Z,41.40
2018-11-13T04:45:50.088Z,24.80
2018-11-13T04:46:50.151Z,25.50
2018-11-13T04:47:50.202Z,37.50
2018-11-13T04:48:50.244Z,32.40
2018-11-13T04:49:50.315Z,24.10
2018-11-13T04:50:50.351Z,24.20
2018-11-13T04:51:50.361Z,25.90
2018-11-13T04:52:50.403Z,24.10
2018-11-13T04:53:50.468Z,24.70
2018-11-13T04:54:50.508Z,25.00
2018-11-13T04:55:50.555Z,24.50
2018-11-13T04:56:50.590Z,24.20
2018-11-13T04:57:50.660Z,23.50
2018-11-13T04:58:50.680Z,23.50
2018-11-13T04:59:50.744Z,22.60
2018-11-13T05:00:50.768Z,24.30
2018-11-13T05:01:50.822Z,24.50
2018-11-13T05:02:50.989Z,21.90
2018-11-13T05:03:50.897Z,21.90
2018-11-13T05:04:50.998Z,21.60
2018-11-13T05:05:51.014Z,22.20
2018-11-13T05:06:51.041Z,21.40
2018-11-13T05:07:51.087Z,21.10
2018-11-13T05:08:51.172Z,20.90
2018-11-13T05:09:51.196Z,21.30
2018-11-13T05:10:51.232Z,22.00
2018-11-13T05:11:51.269Z,21.10
2018-11-13T05:12:51.311Z,21.40
2018-11-13T05:13:51.411Z,21.10
2018-11-13T05:14:51.416Z,20.90
2018-11-13T05:15:51.482Z,21.40
2018-11-13T05:16:51.500Z,21.30
2018-11-13T05:17:51.775Z,20.40
2018-11-13T05:18:51.604Z,20.80
2018-11-13T05:19:51.637Z,20.80
2018-11-13T05:20:51.690Z,20.80
2018-11-13T05:21:51.736Z,19.80
2018-11-13T05:22:51.817Z,20.60
2018-11-13T05:23:51.816Z,21.50
2018-11-13T05:24:51.879Z,20.80
2018-11-13T05:25:51.912Z,21.00
2018-11-13T05:26:52.004Z,20.70
2018-11-13T05:27:52.011Z,20.20
2018-11-13T05:28:52.098Z,19.50
2018-11-13T05:29:52.109Z,20.60
2018-11-13T05:30:52.131Z,20.80
2018-11-13T05:31:52.177Z,32.40
2018-11-13T05:32:52.219Z,20.40
2018-11-13T05:33:52.274Z,43.70
2018-11-13T05:34:52.321Z,19.10
2018-11-13T05:35:52.358Z,18.30
2018-11-13T05:36:52.417Z,19.00
2018-11-13T05:37:52.448Z,18.70
2018-11-13T05:38:52.542Z,19.20
2018-11-13T05:39:52.549Z,17.50
2018-11-13T05:40:52.618Z,18.80
2018-11-13T05:41:52.787Z,18.40
2018-11-13T05:42:52.719Z,17.10
2018-11-13T05:43:52.720Z,17.80
2018-11-13T05:44:52.782Z,17.50
2018-11-13T05:45:52.810Z,17.00
2018-11-13T05:46:52.881Z,17.30
2018-11-13T05:47:52.917Z,17.40
2018-11-13T05:48:52.947Z,17.10
2018-11-13T05:49:53.023Z,16.50
2018-11-13T05:50:53.056Z,16.70
2018-11-13T05:51:53.098Z,17.10
2018-11-13T05:52:53.129Z,16.30
2018-11-13T05:53:53.179Z,15.90
2018-11-13T05:54:53.233Z,16.20
2018-11-13T05:55:53.263Z,15.70
2018-11-13T05:56:53.332Z,16.10
2018-11-13T05:57:53.401Z,16.30
2018-11-13T05:58:53.390Z,16.20
2018-11-13T05:59:53.483Z,15.60
2018-11-13T06:00:53.488Z,15.60
2018-11-13T06:01:53.580Z,15.80
2018-11-13T06:02:53.620Z,15.50
2018-11-13T06:03:53.640Z,16.60
2018-11-13T06:04:53.688Z,16.60
2018-11-13T06:05:53.720Z,21.40
2018-11-13T06:06:53.773Z,19.40
2018-11-13T06:07:53.804Z,17.30
2018-11-13T06:08:53.861Z,16.90
2018-11-13T06:09:53.912Z,17.30
2018-11-13T06:10:53.945Z,17.90
2018-11-13T06:11:54.006Z,17.00
2018-11-13T06:12:54.053Z,16.70
2018-11-13T06:13:54.191Z,16.30
2018-11-13T06:14:54.124Z,17.40
2018-11-13T06:15:54.222Z,17.00
2018-11-13T06:16:54.203Z,17.40
2018-11-13T06:17:54.263Z,18.60
2018-11-13T06:18:54.327Z,20.90
2018-11-13T06:19:54.401Z,18.80
2018-11-13T06:20:54.398Z,19.40
2018-11-13T06:21:54.432Z,19.40
2018-11-13T06:22:54.605Z,19.20
2018-11-13T06:23:54.537Z,19.50
2018-11-13T06:24:54.643Z,18.50
2018-11-13T06:25:54.619Z,20.30
2018-11-13T06:26:54.674Z,19.40
2018-11-13T06:27:54.735Z,27.50
2018-11-13T06:28:54.784Z,72.40
2018-11-13T06:29:54.824Z,20.60
2018-11-13T06:30:54.866Z,20.60
2018-11-13T06:31:54.909Z,20.30
2018-11-13T06:32:54.958Z,21.70
2018-11-13T06:33:55.241Z,20.90
2018-11-13T06:34:55.062Z,20.00
2018-11-13T06:35:55.103Z,19.20
2018-11-13T06:36:55.136Z,20.20
2018-11-13T06:37:55.182Z,19.40
2018-11-13T06:38:55.330Z,19.70
2018-11-13T06:39:55.268Z,19.40
2018-11-13T06:40:55.351Z,18.60
2018-11-13T06:41:55.353Z,19.40
2018-11-13T06:42:55.403Z,19.40
2018-11-13T06:46:55.556Z,20.10
2018-11-13T06:47:55.597Z,19.60
2018-11-13T06:48:55.677Z,23.20
2018-11-13T06:49:55.682Z,18.40
2018-11-13T06:50:55.729Z,80.90
2018-11-13T06:51:56.029Z,17.80
2018-11-13T06:52:55.873Z,17.80
2018-11-13T06:53:55.931Z,17.40
2018-11-13T06:54:55.920Z,21.30
2018-11-13T06:55:55.961Z,17.90
2018-11-13T06:56:56.006Z,17.10
2018-11-13T06:57:56.051Z,17.40
2018-11-13T06:58:56.104Z,17.10
2018-11-13T06:59:56.135Z,25.30
2018-11-13T07:00:56.191Z,19.00
2018-11-13T07:01:56.290Z,18.00
2018-11-13T07:02:56.641Z,16.80
2018-11-13T07:03:56.351Z,24.20
2018-11-13T07:04:56.500Z,17.00
2018-11-13T07:05:56.468Z,15.90
2018-11-13T07:06:56.508Z,17.40
2018-11-13T07:07:56.533Z,17.00
2018-11-13T07:08:56.593Z,39.20
2018-11-13T07:09:56.635Z,17.60
2018-11-13T07:10:56.818Z,17.80
2018-11-13T07:11:56.757Z,17.30
2018-11-13T07:12:56.846Z,17.60
2018-11-13T07:13:56.814Z,17.10
2018-11-13T07:14:56.854Z,17.30
2018-11-13T07:15:56.913Z,16.80
2018-11-13T07:16:56.947Z,16.50
2018-11-13T07:17:56.984Z,20.60
2018-11-13T07:18:57.078Z,18.10
2018-11-13T07:19:57.096Z,20.60
2018-11-13T07:20:57.135Z,17.60
2018-11-13T07:21:57.169Z,17.40
2018-11-13T07:22:57.240Z,16.50
2018-11-13T07:23:57.276Z,18.50
2018-11-13T07:24:57.335Z,18.50
2018-11-13T07:25:57.387Z,17.90
2018-11-13T07:26:57.444Z,17.30
2018-11-13T07:27:57.546Z,17.40
2018-11-13T07:28:57.524Z,17.90
2018-11-13T07:29:57.560Z,17.40
2018-11-13T07:30:57.593Z,28.60
2018-11-13T07:31:57.699Z,17.50
2018-11-13T07:32:57.691Z,18.60
2018-11-13T07:33:57.729Z,17.50
2018-11-13T07:34:57.777Z,17.40
2018-11-13T07:35:57.859Z,17.30
2018-11-13T07:36:57.879Z,18.10
2018-11-13T07:37:57.912Z,18.40
2018-11-13T07:38:58.000Z,29.20
2018-11-13T07:39:58.007Z,17.80
2018-11-13T07:40:58.081Z,19.00
2018-11-13T07:41:58.091Z,17.80
2018-11-13T07:42:58.145Z,18.70
2018-11-13T07:43:58.196Z,18.20
2018-11-13T07:44:58.233Z,18.30
2018-11-13T07:45:58.301Z,18.00
2018-11-13T07:46:58.372Z,18.30
2018-11-13T07:47:58.498Z,18.40
2018-11-13T07:48:58.400Z,18.40
2018-11-13T07:49:58.472Z,19.20
2018-11-13T07:50:58.519Z,19.40
2018-11-13T07:51:58.552Z,19.20
2018-11-13T07:52:58.572Z,18.80
2018-11-13T07:53:58.741Z,20.00
2018-11-13T07:54:58.680Z,19.40
2018-11-13T07:55:58.723Z,18.80
2018-11-13T07:56:58.789Z,19.10
2018-11-13T07:57:58.839Z,18.90
2018-11-13T07:58:58.883Z,19.60
2018-11-13T07:59:58.908Z,19.70
2018-11-13T08:00:58.962Z,19.50
2018-11-13T08:01:59.019Z,19.50
2018-11-13T08:02:59.050Z,19.20
2018-11-13T08:03:59.096Z,20.00
2018-11-13T08:04:59.135Z,20.20
2018-11-13T08:05:59.200Z,19.20
2018-11-13T08:06:59.223Z,19.60
2018-11-13T08:07:59.289Z,20.30
2018-11-13T08:08:59.337Z,19.70
2018-11-13T08:09:59.357Z,19.60
2018-11-13T08:10:59.416Z,19.50
2018-11-13T08:11:59.495Z,20.10
2018-11-13T08:12:59.625Z,19.90
2018-11-13T08:13:59.556Z,19.70
2018-11-13T08:14:59.620Z,19.80
2018-11-13T08:15:59.693Z,20.10
2018-11-13T08:16:59.686Z,20.00
2018-11-13T08:17:59.717Z,19.00
2018-11-13T08:18:59.773Z,19.90
2018-11-13T08:19:59.829Z,20.10
2018-11-13T08:20:59.905Z,19.90
2018-11-13T08:21:59.920Z,19.90
2018-11-13T08:22:59.936Z,19.10
2018-11-13T08:24:00.021Z,19.30
2018-11-13T08:25:00.089Z,19.30
2018-11-13T08:26:00.091Z,19.40
2018-11-13T08:27:00.421Z,22.20
2018-11-13T08:28:00.288Z,19.60
2018-11-13T08:29:00.394Z,19.60
2018-11-13T08:30:00.324Z,19.50
2018-11-13T08:31:00.329Z,20.10
2018-11-13T08:32:00.372Z,18.90
2018-11-13T08:33:00.405Z,19.20
2018-11-13T08:34:00.441Z,19.20
2018-11-13T08:35:00.591Z,19.10
2018-11-13T08:36:00.545Z,19.80
2018-11-13T08:37:00.631Z,18.60
2018-11-13T08:38:00.628Z,18.20
2018-11-13T08:39:00.717Z,19.40
2018-11-13T08:40:00.766Z,19.20
2018-11-13T08:41:00.769Z,20.30
2018-11-13T08:42:00.813Z,19.90
2018-11-13T08:43:00.873Z,20.70
2018-11-13T08:44:00.966Z,20.00
2018-11-13T08:45:00.977Z,19.30
2018-11-13T08:46:01.000Z,19.60
2018-11-13T08:47:01.049Z,18.60
2018-11-13T08:48:01.097Z,19.80
2018-11-13T08:49:01.142Z,19.70
2018-11-13T08:50:01.237Z,19.50
2018-11-13T08:51:01.232Z,19.60
2018-11-13T08:52:01.282Z,19.60
2018-11-13T08:53:01.304Z,20.00
2018-11-13T08:54:01.370Z,19.90
2018-11-13T08:55:01.402Z,19.70
2018-11-13T08:56:01.454Z,19.90
2018-11-13T08:57:01.546Z,19.60
2018-11-13T08:58:01.542Z,19.90
2018-11-13T08:59:01.753Z,19.30
2018-11-13T09:00:01.651Z,20.00
2018-11-13T09:01:01.686Z,19.90
2018-11-13T09:02:01.746Z,20.30
2018-11-13T09:03:01.774Z,19.10
2018-11-13T09:04:01.834Z,20.00
2018-11-13T09:05:01.964Z,19.00
2018-11-13T09:06:01.956Z,19.60
2018-11-13T09:07:01.949Z,19.10
2018-11-13T09:08:02.052Z,18.50
2018-11-13T09:09:02.297Z,18.60
2018-11-13T09:10:02.113Z,18.60
2018-11-13T09:11:02.147Z,19.80
2018-11-13T09:12:02.732Z,18.60
2018-11-13T09:13:02.226Z,18.80
2018-11-13T09:14:02.294Z,18.90
2018-11-13T09:15:02.326Z,18.90
2018-11-13T09:16:02.370Z,18.10
2018-11-13T09:17:02.415Z,19.20
2018-11-13T09:18:02.495Z,18.70
2018-11-13T09:19:02.606Z,17.90
2018-11-13T09:20:02.557Z,18.30
2018-11-13T09:21:02.620Z,18.70
2018-11-13T09:22:02.658Z,20.60
2018-11-13T09:23:02.743Z,18.90
2018-11-13T09:24:02.754Z,19.00
2018-11-13T09:25:02.839Z,18.70
2018-11-13T09:26:02.840Z,19.10
2018-11-13T09:27:02.891Z,18.20
2018-11-13T09:28:02.910Z,18.90
2018-11-13T09:29:02.981Z,18.50
2018-11-13T09:30:03.077Z,18.80
2018-11-13T09:31:03.191Z,18.40
2018-11-13T09:32:03.120Z,18.80
2018-11-13T09:33:03.239Z,19.10
2018-11-13T09:34:03.211Z,17.80
2018-11-13T09:35:03.284Z,18.10
2018-11-13T09:36:03.302Z,17.80
2018-11-13T09:37:03.336Z,17.30
2018-11-13T09:38:03.439Z,17.70
2018-11-13T09:39:03.439Z,18.70
2018-11-13T09:40:03.482Z,18.40
2018-11-13T09:41:03.538Z,18.50
2018-11-13T09:42:03.578Z,17.80
2018-11-13T09:43:03.676Z,18.10
2018-11-13T09:44:03.679Z,17.70
2018-11-13T09:45:03.724Z,17.10
2018-11-13T09:46:03.832Z,17.30
2018-11-13T09:47:03.817Z,17.80
2018-11-13T09:48:03.869Z,18.40
2018-11-13T09:49:03.915Z,16.30
2018-11-13T09:50:03.957Z,16.70
2018-11-13T09:51:03.997Z,16.10
2018-11-13T09:52:04.068Z,16.10
2018-11-13T09:53:04.111Z,14.30
2018-11-13T09:54:04.161Z,13.90
2018-11-13T09:55:04.201Z,13.60
2018-11-13T09:56:04.251Z,14.00
2018-11-13T09:57:04.297Z,12.90
2018-11-13T09:58:04.344Z,13.50
2018-11-13T09:59:04.501Z,13.10
2018-11-13T10:00:04.578Z,12.50
2018-11-13T10:01:04.793Z,13.30
2018-11-13T10:02:05.008Z,12.40
2018-11-13T10:03:05.273Z,12.10
2018-11-13T10:04:05.642Z,11.10
2018-11-13T10:05:05.226Z,10.80
2018-11-13T10:06:04.763Z,11.40
2018-11-13T10:07:04.864Z,11.50
2018-11-13T10:08:04.881Z,10.80
2018-11-13T10:09:04.919Z,10.80
2018-11-13T10:10:05.009Z,10.80
2018-11-13T10:11:05.077Z,10.30
2018-11-13T10:12:05.089Z,9.70
2018-11-13T10:13:05.127Z,9.60
2018-11-13T10:14:05.184Z,9.50
2018-11-13T10:15:05.266Z,10.10
2018-11-13T10:16:05.307Z,9.20
2018-11-13T10:17:05.421Z,8.90
2018-11-13T10:18:05.568Z,8.90
2018-11-13T10:19:05.473Z,9.20
2018-11-13T10:20:05.535Z,9.20
2018-11-13T10:21:05.599Z,9.00
2018-11-13T10:22:05.694Z,9.20
2018-11-13T10:23:05.705Z,9.20
2018-11-13T10:24:05.737Z,9.00
2018-11-13T10:25:05.820Z,8.90
2018-11-13T10:26:05.881Z,8.80
2018-11-13T10:27:05.985Z,9.50
2018-11-13T10:28:06.003Z,9.30
2018-11-13T10:29:06.055Z,10.30
2018-11-13T10:30:06.097Z,9.00
2018-11-13T10:31:06.182Z,9.30
2018-11-13T10:32:06.212Z,10.00
2018-11-13T10:33:06.272Z,10.00
2018-11-13T10:34:06.324Z,8.90
2018-11-13T10:35:06.409Z,8.80
2018-11-13T10:36:06.462Z,9.00
2018-11-13T10:37:06.498Z,9.50
2018-11-13T10:38:06.562Z,8.60
2018-11-13T10:39:06.649Z,9.10
2018-11-13T10:40:06.774Z,9.10
2018-11-13T10:41:06.811Z,8.40
2018-11-13T10:42:06.819Z,8.90
2018-11-13T10:43:06.892Z,8.40
2018-11-13T10:44:06.943Z,8.50
2018-11-13T10:45:06.972Z,8.30
2018-11-13T10:46:07.057Z,8.40
2018-11-13T10:47:07.104Z,9.20
2018-11-13T10:48:07.164Z,8.10
2018-11-13T10:49:07.304Z,8.00
2018-11-13T10:50:07.314Z,8.00
2018-11-13T10:51:07.327Z,8.00
2018-11-13T10:52:07.405Z,8.20
2018-11-13T10:53:07.452Z,8.70
2018-11-13T10:54:07.532Z,7.10
2018-11-13T10:55:07.639Z,7.60
2018-11-13T10:56:07.648Z,7.70
2018-11-13T10:57:07.724Z,8.50
2018-11-13T10:58:07.753Z,8.00
2018-11-13T10:59:07.841Z,7.50
2018-11-13T11:00:07.890Z,7.70
2018-11-13T11:01:07.950Z,8.40
2018-11-13T11:02:08.056Z,7.40
2018-11-13T11:03:08.194Z,7.40
2018-11-13T11:04:08.135Z,7.90
2018-11-13T11:05:08.191Z,7.60
2018-11-13T11:06:08.256Z,6.60
2018-11-13T11:07:08.332Z,7.20
2018-11-13T11:08:08.375Z,6.20
2018-11-13T11:09:08.430Z,6.20
2018-11-13T11:10:08.479Z,6.70
2018-11-13T11:11:08.576Z,6.60
2018-11-13T11:12:08.672Z,6.20
2018-11-13T11:13:08.925Z,5.70
2018-11-13T11:14:08.751Z,5.80
2018-11-13T11:15:08.819Z,5.80
2018-11-13T11:16:08.915Z,5.70
2018-11-13T11:17:08.933Z,5.90
2018-11-13T11:18:09.102Z,6.00
2018-11-13T11:19:09.091Z,5.50
2018-11-13T11:20:09.094Z,5.50
2018-11-13T11:21:09.195Z,5.60
2018-11-13T11:22:09.241Z,5.60
2018-11-13T11:23:09.388Z,5.90
2018-11-13T11:24:09.469Z,5.20
2018-11-13T11:25:09.449Z,5.50
2018-11-13T11:26:09.550Z,5.50
2018-11-13T11:27:09.539Z,5.50
2018-11-13T11:28:09.684Z,5.40
2018-11-13T11:29:09.667Z,5.70
2018-11-13T11:30:09.738Z,5.60
2018-11-13T11:31:09.994Z,5.30
2018-11-13T11:32:09.857Z,5.30
2018-11-13T11:33:09.927Z,5.00
2018-11-13T11:34:09.970Z,5.40
2018-11-13T11:35:10.053Z,6.00
2018-11-13T11:36:10.130Z,5.50
2018-11-13T11:37:10.168Z,5.70
2018-11-13T11:38:10.234Z,5.20
2018-11-13T11:39:10.427Z,5.80
2018-11-13T11:40:10.357Z,5.60
2018-11-13T11:41:10.421Z,4.90
2018-11-13T11:42:10.490Z,5.00
2018-11-13T11:43:10.555Z,4.90
2018-11-13T11:44:10.639Z,4.90
2018-11-13T11:45:10.664Z,4.70
2018-11-13T11:46:10.724Z,4.70
2018-11-13T11:47:10.793Z,4.90
2018-11-13T11:48:10.864Z,4.20
2018-11-13T11:49:10.933Z,4.00
2018-11-13T11:50:10.979Z,4.10
2018-11-13T11:51:11.033Z,3.80
2018-11-13T11:52:11.115Z,3.70
2018-11-13T11:53:11.159Z,3.80
2018-11-13T11:54:11.225Z,3.80
2018-11-13T11:55:11.309Z,3.80
2018-11-13T11:56:11.363Z,2.90
2018-11-13T11:57:11.463Z,2.80
2018-11-13T11:58:11.493Z,2.80
2018-11-13T11:59:11.521Z,4.10
2018-11-13T12:00:11.586Z,2.30
2018-11-13T12:01:11.644Z,2.50
2018-11-13T12:02:11.786Z,2.70
2018-11-13T12:03:11.782Z,2.40
2018-11-13T12:04:11.892Z,2.70
2018-11-13T12:05:11.896Z,2.40
2018-11-13T12:06:11.959Z,2.40
2018-11-13T12:07:12.057Z,2.30
2018-11-13T12:08:12.101Z,2.30
2018-11-13T12:09:12.185Z,2.20
2018-11-13T12:10:12.270Z,2.60
2018-11-13T12:11:12.298Z,2.40
2018-11-13T12:12:12.386Z,2.50
2018-11-13T12:13:12.415Z,2.20
2018-11-13T12:14:12.498Z,2.30
2018-11-13T12:15:12.537Z,3.70
2018-11-13T12:16:12.596Z,4.20
2018-11-13T12:17:12.658Z,8.10
2018-11-13T12:18:12.739Z,5.90
2018-11-13T12:19:12.801Z,2.80
2018-11-13T12:20:12.872Z,2.70
2018-11-13T12:21:12.935Z,2.20
2018-11-13T12:22:12.996Z,2.40
2018-11-13T12:23:13.041Z,4.90
2018-11-13T12:24:13.118Z,10.80
2018-11-13T12:25:13.188Z,2.30
2018-11-13T12:26:13.254Z,2.20
2018-11-13T12:27:13.319Z,2.40
2018-11-13T12:28:13.371Z,2.50
2018-11-13T12:29:13.431Z,2.70
2018-11-13T12:30:13.494Z,2.60
2018-11-13T12:31:13.542Z,2.90
2018-11-13T12:32:13.632Z,2.90
2018-11-13T12:33:13.713Z,5.60
2018-11-13T12:34:13.720Z,3.10
2018-11-13T12:35:13.823Z,2.80
2018-11-13T12:36:13.869Z,4.20
2018-11-13T12:37:13.924Z,2.50
2018-11-13T12:38:14.006Z,2.70
2018-11-13T12:39:14.113Z,2.70
2018-11-13T12:40:14.161Z,2.60
2018-11-13T12:41:14.191Z,2.70
2018-11-13T12:42:14.238Z,2.30
2018-11-13T12:43:14.323Z,2.30
2018-11-13T12:44:14.366Z,2.10
2018-11-13T12:45:14.427Z,2.20
2018-11-13T12:46:14.501Z,2.20
2018-11-13T12:47:14.562Z,2.30
2018-11-13T12:48:14.626Z,2.20
2018-11-13T12:49:15.197Z,2.20
2018-11-13T12:50:14.760Z,3.60
2018-11-13T12:52:14.873Z,2.10
2018-11-13T12:53:14.941Z,2.20
2018-11-13T12:54:15.006Z,2.20
2018-11-13T12:55:15.068Z,1.90
2018-11-13T12:56:15.163Z,1.90
2018-11-13T12:57:15.226Z,2.40
2018-11-13T12:58:15.252Z,1.90
2018-11-13T12:59:15.314Z,1.90
2018-11-13T13:00:15.391Z,2.10
2018-11-13T13:01:15.431Z,2.00
2018-11-13T13:02:15.658Z,2.00
2018-11-13T13:03:15.533Z,1.80
2018-11-13T13:04:15.590Z,1.90